Time;durP1;ratioP1;P1;durP2;ratioP2;P2;SDS_P1;SDS_P2;PMS_P1;PMS_P2;Temp;Humidity;BMP_temperature;BMP_pressure;BME280_temperature;BME280_humidity;BME280_pressure;Samples;Min_cycle;Max_cycle;Signal;HPM_P1;HPM_P2
2022/03/05 00:02:00;;;;;;;45.40;18.90;;;;;;;1.38;80.94;100948.13;52874;1259;1019102;-59
2022/03/05 00:04:31;;;;;;;43.70;17.90;;;;;;;1.37;80.91;100946.70;52806;1273;1016649;-63
2022/03/05 00:07:03;;;;;;;43.10;18.80;;;;;;;1.35;80.92;100943.58;52865;1273;1019254;-63
2022/03/05 00:09:34;;;;;;;48.60;18.40;;;;;;;1.35;80.91;100943.58;52275;1273;1644114;-63
2022/03/05 00:12:07;;;;;;;44.80;18.10;;;;;;;1.34;80.97;100948.54;52757;1273;1016824;-62
2022/03/05 00:14:38;;;;;;;45.50;18.50;;;;;;;1.33;81.04;100946.02;52807;1273;1016758;-63
2022/03/05 00:17:09;;;;;;;48.00;19.60;;;;;;;1.35;80.94;100947.19;52828;1273;1016375;-63
2022/03/05 00:19:41;;;;;;;45.00;17.80;;;;;;;1.36;80.97;100946.88;52879;1273;1019140;-63
2022/03/05 00:22:12;;;;;;;49.00;18.70;;;;;;;1.34;80.89;100945.77;52890;1273;1018701;-63
2022/03/05 00:24:45;;;;;;;41.90;18.90;;;;;;;1.36;80.85;100944.98;52801;1273;1016058;-62
2022/03/05 00:27:20;;;;;;;40.10;18.70;;;;;;;1.37;80.88;100946.00;52737;1273;1016977;-62
2022/03/05 00:29:52;;;;;;;46.00;19.00;;;;;;;1.37;80.81;100940.11;52774;1273;1016673;-61
2022/03/05 00:32:24;;;;;;;47.80;20.30;;;;;;;1.36;80.87;100942.23;52960;1273;1016570;-62
2022/03/05 00:34:55;;;;;;;44.80;18.80;;;;;;;1.34;80.79;100943.81;52862;1273;1016606;-63
2022/03/05 00:37:27;;;;;;;42.40;19.10;;;;;;;1.33;80.86;100946.95;52762;1273;1016645;-63
2022/03/05 00:39:58;;;;;;;42.30;18.10;;;;;;;1.33;80.79;100945.32;52792;1273;1016446;-61
2022/03/05 00:42:29;;;;;;;46.00;19.60;;;;;;;1.35;80.77;100940.59;52840;1273;1016560;-62
2022/03/05 00:45:01;;;;;;;44.30;20.20;;;;;;;1.35;80.84;100939.71;52768;1273;1016254;-61
2022/03/05 00:47:32;;;;;;;49.20;20.30;;;;;;;1.34;80.93;100938.63;52857;1273;1015806;-63
2022/03/05 00:50:05;;;;;;;41.70;18.20;;;;;;;1.31;80.76;100937.16;52746;1273;1016253;-61
2022/03/05 00:52:37;;;;;;;46.10;19.30;;;;;;;1.28;80.77;100934.40;52871;1273;1015932;-62
2022/03/05 00:55:10;;;;;;;45.50;19.90;;;;;;;1.26;80.80;100930.95;52871;1273;1016435;-62
2022/03/05 00:57:43;;;;;;;44.70;19.00;;;;;;;1.23;80.88;100929.23;52742;1273;1018956;-59
2022/03/05 01:00:16;;;;;;;48.70;20.80;;;;;;;1.22;80.80;100926.88;52849;1273;1016419;-61
2022/03/05 01:02:47;;;;;;;40.70;19.60;;;;;;;1.20;80.95;100929.33;52787;1273;1016135;-62
2022/03/05 01:05:18;;;;;;;47.70;18.10;;;;;;;1.18;80.92;100932.33;52872;1273;1016717;-61
2022/03/05 01:07:50;;;;;;;48.30;21.30;;;;;;;1.14;80.87;100934.30;52773;1273;1016431;-61
2022/03/05 01:10:22;;;;;;;47.40;20.00;;;;;;;1.14;81.07;100930.29;52801;1273;1019020;-61
2022/03/05 01:12:53;;;;;;;49.10;20.30;;;;;;;1.14;81.00;100930.29;52794;1273;1016702;-61
2022/03/05 01:15:25;;;;;;;44.80;20.30;;;;;;;1.14;81.05;100932.64;52903;1273;1016456;-62
2022/03/05 01:17:57;;;;;;;47.00;19.90;;;;;;;1.14;81.00;100927.94;52879;1273;1016592;-62
2022/03/05 01:20:30;;;;;;;48.80;18.70;;;;;;;1.13;80.87;100926.36;52749;1274;1016671;-61
2022/03/05 01:23:01;;;;;;;45.30;20.20;;;;;;;1.14;80.98;100926.85;52848;1273;1016531;-61
2022/03/05 01:25:33;;;;;;;44.80;20.00;;;;;;;1.16;80.99;100932.33;52782;1273;1016726;-62
2022/03/05 01:28:05;;;;;;;43.30;19.80;;;;;;;1.14;80.90;100932.80;52764;1273;1016460;-59
2022/03/05 01:30:36;;;;;;;50.30;19.60;;;;;;;1.13;80.87;100934.23;52718;1273;1016546;-61
2022/03/05 01:33:08;;;;;;;51.80;20.40;;;;;;;1.14;80.99;100934.30;52816;1273;1016625;-61
2022/03/05 01:35:42;;;;;;;47.70;20.20;;;;;;;1.13;80.90;100934.93;52716;1273;1016346;-61
2022/03/05 01:38:13;;;;;;;49.10;20.70;;;;;;;1.14;80.94;100936.19;52809;1273;1016743;-59
2022/03/05 01:40:45;;;;;;;42.40;19.70;;;;;;;1.17;80.91;100930.45;52698;1273;1016433;-61
2022/03/05 01:43:16;;;;;;;49.90;20.90;;;;;;;1.19;80.84;100933.50;52834;1272;1019771;-61
2022/03/05 01:45:48;;;;;;;42.70;19.60;;;;;;;1.18;80.73;100932.88;52827;1273;1015943;-62
2022/03/05 01:48:20;;;;;;;46.60;19.20;;;;;;;1.15;80.64;100933.20;52790;1273;1016743;-62
2022/03/05 01:50:51;;;;;;;46.70;20.40;;;;;;;1.11;80.75;100933.77;52738;1273;1016627;-60
2022/03/05 01:53:22;;;;;;;50.00;20.20;;;;;;;1.04;80.72;100933.23;52736;1273;1016104;-61
2022/03/05 01:55:55;;;;;;;44.60;19.20;;;;;;;1.00;80.71;100933.41;52803;1273;1017095;-61
2022/03/05 01:58:26;;;;;;;47.00;20.50;;;;;;;1.00;80.92;100936.86;52865;1273;1016598;-62
2022/03/05 02:00:57;;;;;;;44.50;18.80;;;;;;;1.01;80.93;100934.58;52515;1273;1016472;-61
2022/03/05 02:03:29;;;;;;;44.60;19.50;;;;;;;1.02;80.90;100930.27;52664;1273;1016342;-62
2022/03/05 02:06:00;;;;;;;40.90;17.70;;;;;;;1.03;80.91;100930.26;52891;1273;1016684;-63
2022/03/05 02:08:32;;;;;;;45.00;18.20;;;;;;;1.01;80.81;100931.52;53076;1273;1016299;-64
2022/03/05 02:11:03;;;;;;;41.00;18.30;;;;;;;0.98;80.75;100927.36;52763;1273;1016623;-62
2022/03/05 02:13:36;;;;;;;43.10;18.50;;;;;;;0.96;80.83;100925.33;52879;1273;1016528;-61
2022/03/05 02:16:09;;;;;;;42.10;19.40;;;;;;;0.95;80.76;100924.63;52837;1273;1016285;-63
2022/03/05 02:18:44;;;;;;;40.30;18.80;;;;;;;0.97;80.80;100924.06;52841;1273;1015585;-61
2022/03/05 02:21:16;;;;;;;40.80;18.70;;;;;;;0.99;80.88;100922.89;52694;1273;1015881;-62
2022/03/05 02:23:48;;;;;;;42.30;18.30;;;;;;;0.99;80.87;100923.91;52901;1273;1016413;-62
2022/03/05 02:26:19;;;;;;;42.90;19.70;;;;;;;1.00;80.76;100925.23;52826;1273;1016692;-62
2022/03/05 02:28:52;;;;;;;43.10;18.10;;;;;;;1.01;80.62;100922.88;52814;1273;1016377;-60
2022/03/05 02:31:23;;;;;;;45.70;20.10;;;;;;;0.97;80.64;100926.43;52778;1273;1016804;-61
2022/03/05 02:33:55;;;;;;;40.10;18.30;;;;;;;0.96;80.74;100929.88;52784;1273;1016706;-62
2022/03/05 02:36:27;;;;;;;47.20;19.40;;;;;;;0.95;80.75;100932.33;52819;1272;1016412;-63
2022/03/05 02:38:59;;;;;;;44.50;19.30;;;;;;;0.94;80.70;100926.42;52784;1273;1016786;-63
2022/03/05 02:41:30;;;;;;;41.10;18.40;;;;;;;0.96;80.67;100932.32;52657;1273;1016666;-62
2022/03/05 02:44:01;;;;;;;43.40;19.70;;;;;;;0.93;80.76;100933.83;52779;1274;1016548;-61
2022/03/05 02:46:34;;;;;;;47.00;19.40;;;;;;;0.92;80.70;100933.97;52756;1273;1017000;-63
2022/03/05 02:49:06;;;;;;;46.10;18.10;;;;;;;0.91;80.67;100938.39;52791;1274;1016395;-63
2022/03/05 02:51:37;;;;;;;41.00;18.50;;;;;;;0.89;80.68;100940.81;52771;1273;1016081;-63
2022/03/05 02:54:09;;;;;;;45.10;20.30;;;;;;;0.87;80.80;100943.95;52732;1273;1016610;-62
2022/03/05 02:56:41;;;;;;;42.80;18.20;;;;;;;0.87;80.86;100941.14;52742;1273;1016613;-63
2022/03/05 02:59:12;;;;;;;46.80;18.30;;;;;;;0.83;80.89;100942.40;52790;1273;1018697;-62
2022/03/05 03:01:43;;;;;;;44.60;17.90;;;;;;;0.79;80.83;100940.38;52805;1273;1016997;-62
2022/03/05 03:04:15;;;;;;;39.30;17.30;;;;;;;0.77;81.03;100935.67;52723;1273;1016445;-61
2022/03/05 03:06:46;;;;;;;42.20;18.20;;;;;;;0.75;80.86;100932.69;52815;1273;1016543;-62
2022/03/05 03:09:18;;;;;;;45.40;20.50;;;;;;;0.73;80.98;100935.42;52738;1272;1017130;-62
2022/03/05 03:11:50;;;;;;;47.80;22.00;;;;;;;0.72;81.09;100932.23;52781;1274;1017036;-62
2022/03/05 03:14:24;;;;;;;46.50;19.70;;;;;;;0.73;81.03;100929.70;52774;1273;1017234;-63
2022/03/05 03:16:55;;;;;;;40.50;18.00;;;;;;;0.71;80.92;100926.88;52740;1273;1016406;-63
2022/03/05 03:19:26;;;;;;;41.30;17.50;;;;;;;0.70;81.00;100927.59;52858;1273;1015612;-63
2022/03/05 03:21:58;;;;;;;42.60;18.90;;;;;;;0.70;81.02;100929.09;52695;1273;1016451;-62
2022/03/05 03:24:29;;;;;;;39.30;17.00;;;;;;;0.68;81.06;100934.73;52741;1273;1016230;-62
2022/03/05 03:27:01;;;;;;;40.70;17.70;;;;;;;0.68;81.11;100932.06;52746;1273;1016196;-62
2022/03/05 03:29:32;;;;;;;41.30;17.60;;;;;;;0.68;81.00;100934.57;52674;1274;1016516;-62
2022/03/05 03:32:04;;;;;;;42.60;17.60;;;;;;;0.68;81.01;100933.16;52822;1273;1016384;-61
2022/03/05 03:34:36;;;;;;;32.80;12.50;;;;;;;0.70;81.03;100932.38;52801;1273;1016171;-62
2022/03/05 03:37:07;;;;;;;42.10;16.70;;;;;;;0.67;80.88;100933.71;52854;1273;1016261;-62
2022/03/05 03:39:38;;;;;;;38.60;16.30;;;;;;;0.67;80.91;100932.23;52685;1273;1016399;-62
2022/03/05 03:42:10;;;;;;;37.60;15.30;;;;;;;0.68;80.90;100935.52;52735;1273;1016424;-63
2022/03/05 03:44:42;;;;;;;32.50;15.20;;;;;;;0.69;80.85;100933.16;52910;1273;1016632;-63
2022/03/05 03:47:13;;;;;;;33.60;15.50;;;;;;;0.67;80.80;100932.55;52926;1273;1015796;-62
2022/03/05 03:49:45;;;;;;;33.30;15.20;;;;;;;0.69;80.94;100932.70;52736;1273;1017048;-62
2022/03/05 03:52:16;;;;;;;36.80;14.20;;;;;;;0.69;80.83;100932.69;52676;1274;1016215;-63
2022/03/05 03:54:49;;;;;;;35.50;14.30;;;;;;;0.68;80.76;100932.61;52784;1273;1016120;-62
2022/03/05 03:57:21;;;;;;;32.70;13.60;;;;;;;0.69;80.80;100930.41;52742;1273;1015587;-61
2022/03/05 03:59:52;;;;;;;37.90;14.80;;;;;;;0.67;80.75;100935.69;52805;1274;1016008;-62
2022/03/05 04:02:25;;;;;;;33.30;13.20;;;;;;;0.67;80.85;100936.95;52704;1273;1015883;-62
2022/03/05 04:04:56;;;;;;;32.50;13.20;;;;;;;0.68;80.76;100936.70;52833;1274;1016092;-63
2022/03/05 04:10:17;;;;;;;37.80;13.50;;;;;;;0.69;80.68;100936.85;52709;1273;1016366;-63
2022/03/05 04:12:51;;;;;;;31.10;13.90;;;;;;;0.68;80.70;100939.92;52791;1273;1016296;-62
2022/03/05 04:15:24;;;;;;;30.70;13.00;;;;;;;0.67;80.53;100940.39;52840;1273;1016846;-62
2022/03/05 04:17:57;;;;;;;28.20;12.10;;;;;;;0.66;80.60;100939.36;52786;1273;1016248;-63
2022/03/05 04:20:28;;;;;;;30.70;12.30;;;;;;;0.67;80.72;100945.10;52801;1273;1016190;-63
2022/03/05 04:23:00;;;;;;;30.00;12.20;;;;;;;0.69;80.62;100938.34;52629;1274;1016075;-62
2022/03/05 04:25:31;;;;;;;28.50;11.10;;;;;;;0.69;80.52;100939.69;52748;1274;1016311;-62
2022/03/05 04:28:03;;;;;;;30.70;11.30;;;;;;;0.70;80.56;100937.33;52835;1273;1016266;-63
2022/03/05 04:30:35;;;;;;;29.80;11.20;;;;;;;0.72;80.58;100935.90;52769;1273;1016604;-61
2022/03/05 04:33:06;;;;;;;31.40;11.90;;;;;;;0.73;80.40;100939.13;52752;1273;1016438;-62
2022/03/05 04:35:38;;;;;;;29.50;11.60;;;;;;;0.73;80.41;100936.69;52780;1273;1016613;-62
2022/03/05 04:38:09;;;;;;;29.90;12.60;;;;;;;0.73;80.25;100935.98;52790;1273;1016432;-62
2022/03/05 04:40:40;;;;;;;34.90;14.60;;;;;;;0.75;80.31;100937.55;52735;1273;1016090;-63
2022/03/05 04:43:12;;;;;;;36.10;15.20;;;;;;;0.76;80.22;100942.34;53041;1273;1016364;-62
2022/03/05 04:45:45;;;;;;;38.70;15.40;;;;;;;0.75;80.29;100939.36;52867;1273;1016704;-62
2022/03/05 04:48:16;;;;;;;35.20;14.90;;;;;;;0.75;80.21;100942.27;52937;1273;1016210;-61
2022/03/05 04:50:48;;;;;;;36.90;14.00;;;;;;;0.74;80.18;100943.60;52806;1273;1015770;-63
2022/03/05 04:53:21;;;;;;;32.90;12.00;;;;;;;0.74;80.13;100944.70;52857;1273;1017264;-62
2022/03/05 04:55:54;;;;;;;24.00;8.80;;;;;;;0.65;79.98;100948.56;52788;1273;1016464;-62
2022/03/05 04:58:26;;;;;;;27.20;9.70;;;;;;;0.53;79.96;100955.17;52833;1273;1015951;-63
2022/03/05 05:00:57;;;;;;;27.30;11.00;;;;;;;0.47;80.28;100950.31;52794;1273;1016008;-62
2022/03/05 05:03:29;;;;;;;31.10;11.40;;;;;;;0.43;80.10;100948.35;52802;1273;1016458;-61
2022/03/05 05:06:00;;;;;;;27.40;9.80;;;;;;;0.38;80.11;100946.55;52898;1271;1016449;-62
2022/03/05 05:08:32;;;;;;;28.30;11.80;;;;;;;0.36;80.34;100942.70;52685;1274;1016676;-62
2022/03/05 05:11:03;;;;;;;28.10;9.40;;;;;;;0.32;80.30;100948.90;52821;1273;1015369;-61
2022/03/05 05:13:35;;;;;;;32.10;11.00;;;;;;;0.27;80.33;100951.71;52868;1273;1015966;-62
2022/03/05 05:16:06;;;;;;;30.20;11.60;;;;;;;0.27;80.44;100947.48;52921;1273;1015818;-63
2022/03/05 05:18:40;;;;;;;30.90;12.90;;;;;;;0.24;80.31;100947.25;52735;1275;1016141;-62
2022/03/05 05:21:30;;;;;;;27.80;11.50;;;;;;;0.22;80.46;100950.48;52721;1273;1016252;-62
2022/03/05 05:24:01;;;;;;;32.10;12.30;;;;;;;0.22;80.49;100952.66;52790;1273;1017142;-64
2022/03/05 05:26:33;;;;;;;27.70;10.30;;;;;;;0.24;80.40;100949.92;52816;1273;1016250;-63
2022/03/05 05:29:04;;;;;;;28.20;11.40;;;;;;;0.23;80.30;100946.39;52727;1273;1016723;-63
2022/03/05 05:31:35;;;;;;;26.30;10.30;;;;;;;0.23;80.39;100949.45;52754;1273;1017027;-63
2022/03/05 05:34:06;;;;;;;28.10;10.40;;;;;;;0.21;80.22;100947.25;52706;1273;1016675;-61
2022/03/05 05:36:38;;;;;;;28.20;10.80;;;;;;;0.19;80.28;100946.16;52786;1273;1015963;-62
2022/03/05 05:39:12;;;;;;;30.80;11.20;;;;;;;0.14;80.25;100955.40;52803;1273;1016288;-61
2022/03/05 05:41:44;;;;;;;30.20;11.50;;;;;;;0.09;80.18;100958.39;52899;1273;1017028;-61
2022/03/05 05:44:16;;;;;;;28.80;10.50;;;;;;;0.07;80.22;100957.42;52790;1273;1016270;-61
2022/03/05 05:46:47;;;;;;;31.50;11.10;;;;;;;0.04;80.21;100958.61;52861;1273;1016468;-61
2022/03/05 05:49:20;;;;;;;34.80;11.70;;;;;;;-0.03;80.06;100961.11;52704;1273;1016807;-62
2022/03/05 05:51:54;;;;;;;33.80;13.60;;;;;;;-0.13;80.12;100960.40;52699;1273;1017080;-61
2022/03/05 05:54:25;;;;;;;34.10;13.70;;;;;;;-0.19;80.29;100964.52;52746;1271;1016800;-64
2022/03/05 05:56:57;;;;;;;30.40;13.00;;;;;;;-0.20;80.39;100968.13;52721;1273;1016284;-62
2022/03/05 05:59:28;;;;;;;32.90;13.20;;;;;;;-0.23;80.52;100963.27;52843;1273;1016767;-62
2022/03/05 06:02:00;;;;;;;29.30;12.40;;;;;;;-0.24;80.45;100963.66;52951;1273;1016537;-63
2022/03/05 06:04:33;;;;;;;30.40;11.20;;;;;;;-0.24;80.49;100961.92;53044;1261;1020320;-60
2022/03/05 06:07:04;;;;;;;33.60;13.30;;;;;;;-0.26;80.48;100962.09;52717;1271;1016410;-60
2022/03/05 06:09:36;;;;;;;29.80;12.00;;;;;;;-0.28;80.42;100964.98;52708;1271;1016547;-60
2022/03/05 06:12:09;;;;;;;30.90;11.50;;;;;;;-0.30;80.50;100970.00;52544;1271;1016538;-61
2022/03/05 06:14:41;;;;;;;31.30;12.70;;;;;;;-0.32;80.41;100970.22;53933;1271;1016171;-60
2022/03/05 06:17:12;;;;;;;32.30;12.70;;;;;;;-0.33;80.54;100973.59;54577;1271;1015779;-62
2022/03/05 06:19:45;;;;;;;33.50;12.80;;;;;;;-0.36;80.57;100968.88;54533;1271;1015785;-61
2022/03/05 06:22:16;;;;;;;29.60;12.60;;;;;;;-0.39;80.42;100973.18;52573;1271;1016629;-61
2022/03/05 06:24:48;;;;;;;32.40;14.00;;;;;;;-0.41;80.57;100973.40;52529;1271;1016169;-61
2022/03/05 06:27:20;;;;;;;32.10;12.80;;;;;;;-0.42;80.61;100972.54;52664;1273;1017112;-61
2022/03/05 06:29:52;;;;;;;29.70;13.00;;;;;;;-0.42;80.82;100980.30;52583;1271;1016585;-61
2022/03/05 06:32:26;;;;;;;27.60;11.50;;;;;;;-0.45;81.00;100983.98;52727;1271;1016597;-61
2022/03/05 06:34:58;;;;;;;29.70;11.70;;;;;;;-0.45;81.12;100982.40;52678;1271;1016381;-60
2022/03/05 06:37:30;;;;;;;31.00;11.90;;;;;;;-0.45;81.21;100984.28;52553;1273;1016674;-61
2022/03/05 06:40:02;;;;;;;32.00;11.30;;;;;;;-0.44;81.38;100990.86;52739;1273;1016284;-61
2022/03/05 06:42:34;;;;;;;27.90;10.80;;;;;;;-0.45;81.45;100993.30;52556;1273;1016194;-61
2022/03/05 06:45:08;;;;;;;32.30;11.80;;;;;;;-0.44;81.39;100999.58;52534;1273;1015947;-61
2022/03/05 06:47:40;;;;;;;32.40;12.60;;;;;;;-0.44;81.53;101001.45;52658;1271;1016540;-61
2022/03/05 06:50:13;;;;;;;34.10;12.40;;;;;;;-0.43;81.56;101002.70;52662;1271;1016608;-61
2022/03/05 06:52:44;;;;;;;33.20;13.10;;;;;;;-0.44;81.39;101003.65;52594;1271;1016224;-64
2022/03/05 06:55:17;;;;;;;32.70;14.50;;;;;;;-0.43;81.45;101005.70;52463;1271;1016338;-62
2022/03/05 06:57:49;;;;;;;33.50;13.40;;;;;;;-0.42;81.49;101001.39;52573;1271;1016509;-63
2022/03/05 07:00:21;;;;;;;32.60;14.10;;;;;;;-0.41;81.48;101002.40;52661;1273;1016549;-62
2022/03/05 07:02:54;;;;;;;32.40;13.10;;;;;;;-0.39;81.47;101000.92;52610;1271;1016299;-62
2022/03/05 07:05:26;;;;;;;47.40;13.50;;;;;;;-0.36;81.34;101003.75;52624;1273;1016144;-61
2022/03/05 07:07:57;;;;;;;34.70;13.20;;;;;;;-0.32;81.51;101005.50;52704;1273;1015766;-62
2022/03/05 07:10:29;;;;;;;31.30;11.80;;;;;;;-0.29;81.36;101008.33;52802;1273;1016848;-62
2022/03/05 07:13:00;;;;;;;31.40;11.20;;;;;;;-0.24;81.38;101007.79;52749;1273;1016603;-62
2022/03/05 07:15:32;;;;;;;30.00;9.60;;;;;;;-0.21;81.45;101008.42;52688;1273;1016564;-61
2022/03/05 07:18:03;;;;;;;32.60;11.70;;;;;;;-0.19;81.48;101012.59;52492;1273;1016752;-61
2022/03/05 07:20:35;;;;;;;28.00;10.00;;;;;;;-0.15;81.52;101014.73;52602;1273;1015788;-61
2022/03/05 07:23:07;;;;;;;26.50;10.30;;;;;;;-0.10;81.58;101013.73;52709;1273;1016388;-62
2022/03/05 07:25:40;;;;;;;32.20;13.20;;;;;;;-0.05;81.38;101013.25;52557;1273;1016545;-62
2022/03/05 07:28:12;;;;;;;31.80;13.60;;;;;;;-0.02;81.45;101013.73;52519;1273;1016544;-62
2022/03/05 07:30:46;;;;;;;36.80;15.60;;;;;;;0.04;81.27;101019.79;53014;1273;1016153;-62
2022/03/05 07:33:19;;;;;;;36.60;14.90;;;;;;;0.06;81.21;101024.19;54463;1274;1015668;-61
2022/03/05 07:35:58;;;;;;;32.70;11.90;;;;;;;0.09;81.05;101024.58;52923;1273;1016498;-61
2022/03/05 07:38:35;;;;;;;37.10;15.20;;;;;;;0.11;81.14;101028.74;52988;1273;1020386;-61
2022/03/05 07:41:07;;;;;;;31.60;13.80;;;;;;;0.13;81.11;101033.45;52462;1272;1016275;-63
2022/03/05 07:43:38;;;;;;;30.40;12.50;;;;;;;0.14;81.02;101044.13;53196;1273;1016647;-61
2022/03/05 07:46:10;;;;;;;38.60;15.50;;;;;;;0.13;81.01;101044.13;52568;1273;1017067;-61
2022/03/05 07:48:42;;;;;;;41.20;15.90;;;;;;;0.11;81.06;101046.86;53883;1273;1016849;-60
2022/03/05 07:51:14;;;;;;;33.00;14.10;;;;;;;0.14;81.12;101048.36;52703;1273;1016601;-60
2022/03/05 07:53:45;;;;;;;32.70;13.90;;;;;;;0.18;81.10;101049.70;52658;1273;1016371;-60
2022/03/05 07:56:17;;;;;;;33.80;14.90;;;;;;;0.16;80.91;101052.91;52629;1271;1017087;-61
2022/03/05 07:58:49;;;;;;;31.70;15.30;;;;;;;0.17;80.97;101054.10;52572;1273;1016097;-59
2022/03/05 08:01:22;;;;;;;32.00;13.70;;;;;;;0.20;80.80;101054.89;52607;1273;1016252;-61
2022/03/05 08:03:54;;;;;;;35.60;14.40;;;;;;;0.22;80.83;101057.09;52672;1273;1016243;-60
2022/03/05 08:06:26;;;;;;;30.30;12.30;;;;;;;0.24;80.75;101058.98;52677;1273;1015886;-61
2022/03/05 08:08:59;;;;;;;35.30;14.10;;;;;;;0.19;80.48;101060.14;52793;1273;1016722;-60
2022/03/05 08:11:32;;;;;;;32.40;13.80;;;;;;;0.16;80.59;101062.64;52598;1273;1016218;-59
2022/03/05 08:14:04;;;;;;;34.40;14.50;;;;;;;0.15;80.66;101062.71;52688;1273;1016092;-63
2022/03/05 08:16:36;;;;;;;35.60;14.00;;;;;;;0.16;80.83;101066.24;52701;1273;1016025;-61
2022/03/05 08:19:08;;;;;;;33.10;14.40;;;;;;;0.15;80.69;101067.04;52656;1273;1016530;-62
2022/03/05 08:21:40;;;;;;;29.50;10.70;;;;;;;0.13;80.84;101066.55;52725;1273;1016085;-61
2022/03/05 08:24:12;;;;;;;28.70;11.80;;;;;;;0.13;80.72;101069.23;52737;1273;1016040;-64
2022/03/05 08:26:44;;;;;;;31.50;12.50;;;;;;;0.14;80.64;101071.20;52636;1271;1019374;-59
2022/03/05 08:29:16;;;;;;;31.70;12.10;;;;;;;0.15;80.54;101070.71;52676;1273;1016270;-61
2022/03/05 08:31:47;;;;;;;30.20;13.20;;;;;;;0.11;80.59;101078.16;52701;1273;1016409;-59
2022/03/05 08:34:19;;;;;;;30.30;13.10;;;;;;;0.11;80.51;101073.84;52734;1273;1016521;-61
2022/03/05 08:36:51;;;;;;;36.80;15.50;;;;;;;0.10;80.62;101074.94;52624;1273;1016474;-61
2022/03/05 08:39:23;;;;;;;35.40;16.20;;;;;;;0.12;80.86;101078.95;52696;1273;1016165;-62
2022/03/05 08:41:57;;;;;;;36.60;14.50;;;;;;;0.14;80.91;101077.93;52550;1273;1016183;-60
2022/03/05 08:44:30;;;;;;;35.40;14.40;;;;;;;0.17;81.03;101085.24;52707;1273;1016321;-60
2022/03/05 08:47:02;;;;;;;33.10;13.00;;;;;;;0.20;80.85;101088.47;52564;1273;1016660;-61
2022/03/05 08:49:33;;;;;;;30.80;12.70;;;;;;;0.21;80.58;101092.16;52818;1273;1016038;-61
2022/03/05 08:52:05;;;;;;;27.50;11.90;;;;;;;0.22;80.49;101094.74;52879;1273;1016369;-61
2022/03/05 08:54:37;;;;;;;32.00;12.50;;;;;;;0.19;80.14;101096.88;52830;1273;1017449;-59
2022/03/05 08:57:11;;;;;;;33.10;13.80;;;;;;;0.20;80.32;101101.34;52796;1273;1016128;-62
2022/03/05 08:59:42;;;;;;;33.80;13.30;;;;;;;0.20;80.23;101101.50;53090;1273;1017639;-61
2022/03/05 09:02:14;;;;;;;29.60;11.00;;;;;;;0.21;80.17;101106.98;52583;1272;1016405;-61
2022/03/05 09:04:46;;;;;;;32.20;13.20;;;;;;;0.22;80.21;101107.85;52639;1273;1016611;-60
2022/03/05 09:07:19;;;;;;;33.20;13.90;;;;;;;0.27;80.34;101106.52;52614;1273;1018981;-61
2022/03/05 09:09:50;;;;;;;33.20;15.00;;;;;;;0.34;80.15;101107.88;52691;1273;1016258;-60
2022/03/05 09:12:23;;;;;;;35.00;14.80;;;;;;;0.35;79.98;101106.00;52591;1273;1015824;-58
2022/03/05 09:14:56;;;;;;;28.10;11.40;;;;;;;0.40;79.92;101104.61;52638;1273;1016598;-59
2022/03/05 09:17:29;;;;;;;25.50;10.20;;;;;;;0.39;79.51;101105.92;52905;1273;1016278;-60
2022/03/05 09:20:02;;;;;;;30.50;12.60;;;;;;;0.32;79.26;101106.61;52712;1273;1016111;-60
2022/03/05 09:22:34;;;;;;;28.10;11.10;;;;;;;0.28;79.59;101105.98;52602;1273;1016661;-59
2022/03/05 09:25:08;;;;;;;33.90;14.00;;;;;;;0.27;79.44;101107.39;52579;1273;1017247;-61
2022/03/05 09:27:40;;;;;;;35.10;13.70;;;;;;;0.27;79.65;101107.71;52608;1273;1015936;-60
2022/03/05 09:30:13;;;;;;;26.30;11.90;;;;;;;0.33;79.70;101106.85;52640;1273;1016431;-59
2022/03/05 09:32:45;;;;;;;28.20;11.30;;;;;;;0.31;79.16;101105.84;52603;1273;1016251;-56
2022/03/05 09:35:17;;;;;;;28.00;12.20;;;;;;;0.25;79.26;101103.61;52504;1273;1015974;-57
2022/03/05 09:37:49;;;;;;;38.80;14.10;;;;;;;0.26;79.32;101096.64;52904;1273;1016345;-60
2022/03/05 09:40:21;;;;;;;34.80;13.50;;;;;;;0.27;79.58;101094.28;52660;1273;1016347;-57
2022/03/05 09:42:54;;;;;;;28.30;11.60;;;;;;;0.34;79.61;101093.91;52606;1273;1019664;-57
2022/03/05 09:45:27;;;;;;;27.90;11.40;;;;;;;0.33;79.33;101099.16;52485;1273;1018860;-56
2022/03/05 09:47:59;;;;;;;28.20;10.90;;;;;;;0.32;79.42;101093.20;52775;1273;1018689;-60
2022/03/05 09:50:32;;;;;;;31.20;13.90;;;;;;;0.32;79.44;101094.54;52649;1273;1019766;-58
2022/03/05 09:53:04;;;;;;;28.30;12.10;;;;;;;0.38;79.54;101096.59;52743;1273;1016441;-59
2022/03/05 09:55:36;;;;;;;27.40;10.90;;;;;;;0.47;79.61;101096.99;52781;1273;1017181;-59
2022/03/05 09:58:08;;;;;;;32.10;12.50;;;;;;;0.54;79.15;101095.59;52645;1273;1015932;-60
2022/03/05 10:00:41;;;;;;;29.20;12.20;;;;;;;0.56;79.09;101093.79;52646;1273;1016695;-62
2022/03/05 10:03:15;;;;;;;29.00;11.50;;;;;;;0.57;79.06;101094.58;52659;1273;1016409;-59
2022/03/05 10:05:46;;;;;;;28.60;12.80;;;;;;;0.58;78.92;101098.20;52580;1273;1015919;-61
2022/03/05 10:08:20;;;;;;;29.70;11.30;;;;;;;0.59;78.88;101098.52;52607;1273;1016151;-60
2022/03/05 10:10:56;;;;;;;29.50;13.40;;;;;;;0.57;78.51;101097.09;52511;1273;1015990;-59
2022/03/05 10:13:31;;;;;;;29.00;12.30;;;;;;;0.54;78.71;101101.48;52601;1273;1016307;-61
2022/03/05 10:16:05;;;;;;;30.40;10.60;;;;;;;0.55;78.98;101102.42;52761;1273;1016000;-58
2022/03/05 10:18:38;;;;;;;33.30;13.30;;;;;;;0.59;79.02;101104.40;52599;1273;1016251;-59
2022/03/05 10:21:12;;;;;;;26.10;12.70;;;;;;;0.66;79.21;101101.03;52683;1273;1016158;-54
2022/03/05 10:23:49;;;;;;;32.50;11.40;;;;;;;0.73;79.08;101103.46;52665;1273;1016177;-61
2022/03/05 10:26:23;;;;;;;32.40;13.40;;;;;;;0.78;78.80;101105.83;52680;1273;1016454;-59
2022/03/05 10:28:57;;;;;;;32.10;11.80;;;;;;;0.83;78.72;101104.02;52623;1273;1020017;-60
2022/03/05 10:31:29;;;;;;;35.90;13.50;;;;;;;0.85;78.48;101102.45;52689;1273;1016537;-59
2022/03/05 10:34:02;;;;;;;33.30;13.40;;;;;;;0.86;78.65;101100.34;52693;1273;1017474;-60
2022/03/05 10:36:34;;;;;;;36.30;14.90;;;;;;;0.91;78.93;101098.92;52733;1273;1016054;-61
2022/03/05 10:39:07;;;;;;;68.40;27.70;;;;;;;1.01;78.95;101099.40;52627;1273;1016535;-61
2022/03/05 10:41:43;;;;;;;45.70;17.60;;;;;;;1.09;78.39;101097.66;52712;1273;1016404;-61
2022/03/05 10:44:19;;;;;;;40.70;17.10;;;;;;;1.13;78.50;101096.64;52628;1273;1019101;-59
2022/03/05 10:46:57;;;;;;;37.30;14.20;;;;;;;1.22;78.51;101095.21;52799;1273;1016491;-59
2022/03/05 10:49:31;;;;;;;30.90;13.50;;;;;;;1.22;78.20;101089.16;54534;1273;1016122;-61
2022/03/05 10:52:11;;;;;;;34.30;15.10;;;;;;;1.27;78.18;101088.45;52626;1273;1015887;-59
2022/03/05 10:54:45;;;;;;;34.10;14.80;;;;;;;1.34;77.79;101085.69;52848;1273;1016062;-60
2022/03/05 10:57:21;;;;;;;36.20;15.30;;;;;;;1.33;77.58;101091.74;52701;1273;1016280;-59
2022/03/05 10:59:55;;;;;;;37.50;15.20;;;;;;;1.31;77.25;101090.08;52680;1273;1016673;-61
2022/03/05 11:02:27;;;;;;;38.70;17.20;;;;;;;1.31;77.62;101091.89;52691;1273;1016694;-59
2022/03/05 11:05:02;;;;;;;35.70;15.60;;;;;;;1.32;77.53;101091.18;52681;1273;1016567;-60
2022/03/05 11:07:34;;;;;;;39.70;16.90;;;;;;;1.35;77.74;101091.73;52571;1273;1016848;-59
2022/03/05 11:10:08;;;;;;;36.80;16.40;;;;;;;1.41;77.63;101090.54;52613;1273;1016118;-60
2022/03/05 11:12:51;;;;;;;43.70;17.00;;;;;;;1.43;77.37;101089.04;52749;1273;1016143;-59
2022/03/05 11:15:26;;;;;;;41.90;18.90;;;;;;;1.44;77.30;101090.54;52706;1273;1016438;-60
2022/03/05 11:17:59;;;;;;;43.90;17.10;;;;;;;1.44;77.09;101089.11;52604;1273;1017802;-60
2022/03/05 11:20:31;;;;;;;38.20;17.00;;;;;;;1.48;77.01;101088.40;52724;1273;1016143;-59
2022/03/05 11:23:04;;;;;;;46.10;19.60;;;;;;;1.53;77.50;101085.16;52708;1273;1017867;-60
2022/03/05 11:25:37;;;;;;;44.80;19.60;;;;;;;1.63;77.63;101084.11;52441;1273;1016311;-60